地図

経路データ

SID SEASON NUMBER BASIN SUBBASIN NAME ISO_TIME NATURE LAT LON WMO_WIND WMO_PRES WMO_AGENCY TRACK_TYPE DIST2LAND LANDFALL IFLAG USA_AGENCY USA_ATCF_ID USA_LAT USA_LON USA_RECORD USA_STATUS USA_WIND USA_PRES USA_SSHS USA_R34_NE USA_R34_SE USA_R34_SW USA_R34_NW USA_R50_NE USA_R50_SE USA_R50_SW USA_R50_NW USA_R64_NE USA_R64_SE USA_R64_SW USA_R64_NW USA_POCI USA_ROCI USA_RMW USA_EYE TOKYO_LAT TOKYO_LON TOKYO_GRADE TOKYO_WIND TOKYO_PRES TOKYO_R50_DIR TOKYO_R50_LONG TOKYO_R50_SHORT TOKYO_R30_DIR TOKYO_R30_LONG TOKYO_R30_SHORT TOKYO_LAND CMA_LAT CMA_LON CMA_CAT CMA_WIND CMA_PRES HKO_LAT HKO_LON HKO_CAT HKO_WIND HKO_PRES NEWDELHI_LAT NEWDELHI_LON NEWDELHI_GRADE NEWDELHI_WIND NEWDELHI_PRES NEWDELHI_CI NEWDELHI_DP NEWDELHI_POCI REUNION_LAT REUNION_LON REUNION_TYPE REUNION_WIND REUNION_PRES REUNION_TNUM REUNION_CI REUNION_RMW REUNION_R34_NE REUNION_R34_SE REUNION_R34_SW REUNION_R34_NW REUNION_R50_NE REUNION_R50_SE REUNION_R50_SW REUNION_R50_NW REUNION_R64_NE REUNION_R64_SE REUNION_R64_SW REUNION_R64_NW BOM_LAT BOM_LON BOM_TYPE BOM_WIND BOM_PRES BOM_TNUM BOM_CI BOM_RMW BOM_R34_NE BOM_R34_SE BOM_R34_SW BOM_R34_NW BOM_R50_NE BOM_R50_SE BOM_R50_SW BOM_R50_NW BOM_R64_NE BOM_R64_SE BOM_R64_SW BOM_R64_NW BOM_ROCI BOM_POCI BOM_EYE BOM_POS_METHOD BOM_PRES_METHOD NADI_LAT NADI_LON NADI_CAT NADI_WIND NADI_PRES WELLINGTON_LAT WELLINGTON_LON WELLINGTON_WIND WELLINGTON_PRES DS824_LAT DS824_LON DS824_STAGE DS824_WIND DS824_PRES TD9636_LAT TD9636_LON TD9636_STAGE TD9636_WIND TD9636_PRES TD9635_LAT TD9635_LON TD9635_WIND TD9635_PRES TD9635_ROCI NEUMANN_LAT NEUMANN_LON NEUMANN_CLASS NEUMANN_WIND NEUMANN_PRES MLC_LAT MLC_LON MLC_CLASS MLC_WIND MLC_PRES USA_GUST BOM_GUST BOM_GUST_PER REUNION_GUST REUNION_GUST_PER USA_SEAHGT USA_SEARAD_NE USA_SEARAD_SE USA_SEARAD_SW USA_SEARAD_NW STORM_SPEED STORM_DIR
1979192N30280 1979 53 NA NA NOT_NAMED 1979-07-10 12:00:00 TS 30.0000 -79.8000 20 hurdat_atl main 142 142 O_____________ hurdat_atl AL051979 30.0000 -79.8000 TD 20 -1 14 54
1979192N30280 1979 53 NA NA NOT_NAMED 1979-07-10 15:00:00 TS 30.4054 -79.1658 main 212 212 P_____________ AL051979 30.4054 -79.1658 TD 20 -1 14 54
1979192N30280 1979 53 NA NA NOT_NAMED 1979-07-10 18:00:00 TS 30.8000 -78.5000 20 hurdat_atl main 245 242 O_____________ hurdat_atl AL051979 30.8000 -78.5000 TD 20 -1 14 57
1979192N30280 1979 53 NA NA NOT_NAMED 1979-07-10 21:00:00 TS 31.1725 -77.7924 main 250 250 P_____________ AL051979 31.1725 -77.7924 TD 22 -1 14 60
1979192N30280 1979 53 NA NA NOT_NAMED 1979-07-11 00:00:00 TS 31.5000 -77.1000 25 hurdat_atl main 273 272 O_____________ hurdat_atl AL051979 31.5000 -77.1000 TD 25 -1 12 62
1979192N30280 1979 53 NA NA NOT_NAMED 1979-07-11 03:00:00 TS 31.7563 -76.5287 main 272 272 P_____________ AL051979 31.7563 -76.5287 TD 25 -1 11 64
1979192N30280 1979 53 NA NA NOT_NAMED 1979-07-11 06:00:00 TS 32.0000 -75.9000 25 hurdat_atl main 288 286 O_____________ hurdat_atl AL051979 32.0000 -75.9000 TD 25 -1 14 66
1979192N30280 1979 53 NA NA NOT_NAMED 1979-07-11 09:00:00 TS 32.3383 -75.0165 main 301 291 P_____________ AL051979 32.3383 -75.0165 TD 27 -1 16 68
1979192N30280 1979 53 NA NA NOT_NAMED 1979-07-11 12:00:00 TS 32.6000 -74.1000 30 hurdat_atl main 322 322 O_____________ hurdat_atl AL051979 32.6000 -74.1000 TD 30 -1 14 77
1979192N30280 1979 53 NA NA NOT_NAMED 1979-07-11 15:00:00 TS 32.6589 -73.3766 main 362 362 P_____________ AL051979 32.6589 -73.3766 TD 30 -1 12 90
1979192N30280 1979 53 NA NA NOT_NAMED 1979-07-11 18:00:00 TS 32.6000 -72.7000 30 hurdat_atl main 419 419 O_____________ hurdat_atl AL051979 32.6000 -72.7000 TD 30 -1 12 96
1979192N30280 1979 53 NA NA NOT_NAMED 1979-07-11 21:00:00 TS 32.5226 -71.9349 main 486 486 P_____________ AL051979 32.5226 -71.9349 TD 30 -1 13 99
1979192N30280 1979 53 NA NA NOT_NAMED 1979-07-12 00:00:00 TS 32.4000 -71.2000 30 hurdat_atl main 546 546 O_____________ hurdat_atl AL051979 32.4000 -71.2000 TD 30 -1 12 104
1979192N30280 1979 53 NA NA NOT_NAMED 1979-07-12 03:00:00 TS 32.2419 -70.5774 main 603 603 P_____________ AL051979 32.2419 -70.5774 TD 30 -1 11 106
1979192N30280 1979 53 NA NA NOT_NAMED 1979-07-12 06:00:00 TS 32.1000 -70.0000 30 hurdat_atl main 652 652 O_____________ hurdat_atl AL051979 32.1000 -70.0000 TD 30 -1 10 103
1979192N30280 1979 53 NA NA NOT_NAMED 1979-07-12 09:00:00 TS 32.0333 -69.4754 main 696 696 P_____________ AL051979 32.0333 -69.4754 TD 30 -1 10 96
1979192N30280 1979 53 NA NA NOT_NAMED 1979-07-12 12:00:00 TS 32.0000 -68.8000 30 hurdat_atl main 748 748 O_____________ hurdat_atl AL051979 32.0000 -68.8000 TD 30 -1 14 93
1979192N30280 1979 53 NA NA NOT_NAMED 1979-07-12 15:00:00 TS 31.9509 -67.7674 main 825 825 P_____________ AL051979 31.9509 -67.7674 TD 30 -1 19 93
1979192N30280 1979 53 NA NA NOT_NAMED 1979-07-12 18:00:00 TS 31.9000 -66.6000 30 hurdat_atl main 927 927 O_____________ hurdat_atl AL051979 31.9000 -66.6000 TD 30 -1 19 94
1979192N30280 1979 53 NA NA NOT_NAMED 1979-07-12 21:00:00 TS 31.8340 -65.5421 main 1023 1023 P_____________ AL051979 31.8340 -65.5421 TD 30 -1 18 93
1979192N30280 1979 53 NA NA NOT_NAMED 1979-07-13 00:00:00 TS 31.8000 -64.5000 30 hurdat_atl main 1107 1107 O_____________ hurdat_atl AL051979 31.8000 -64.5000 TD 30 -1 18 90
1979192N30280 1979 53 NA NA NOT_NAMED 1979-07-13 03:00:00 TS 31.8345 -63.4354 main 1200 1200 P_____________ AL051979 31.8345 -63.4354 TD 30 -1 18 87
1979192N30280 1979 53 NA NA NOT_NAMED 1979-07-13 06:00:00 TS 31.9000 -62.4000 30 hurdat_atl main 1281 1281 O_____________ hurdat_atl AL051979 31.9000 -62.4000 TD 30 -1 17 88
1979192N30280 1979 53 NA NA NOT_NAMED 1979-07-13 09:00:00 TS 31.9033 -61.4632 main 1325 1325 P_____________ AL051979 31.9033 -61.4632 TD 27 -1 16 86
1979192N30280 1979 53 NA NA NOT_NAMED 1979-07-13 12:00:00 TS 32.0000 -60.5000 25 hurdat_atl main 1347 1345 O_____________ hurdat_atl AL051979 32.0000 -60.5000 TD 25 -1 18 77
1979192N30280 1979 53 NA NA NOT_NAMED 1979-07-13 15:00:00 TS 32.2930 -59.3985 main 1348 1345 P_____________ AL051979 32.2930 -59.3985 TD 22 -1 21 70
1979192N30280 1979 53 NA NA NOT_NAMED 1979-07-13 18:00:00 TS 32.7000 -58.2000 20 hurdat_atl main 1351 O_____________ hurdat_atl AL051979 32.7000 -58.2000 TD 20 -1 22 68

IBTrACS Databaseについて

本データベースは、米国NOAAが公開する1842年以降の世界の熱帯低気圧のベストトラックデータアーカイブInternational Best Track Archive for Climate Stewardship (IBTrACS)を、ウェブで閲覧しやすい形式に変換したものです。

最終更新日:2021-11-26